PWSweather.com
Personal Weather Stations
Station Observations
WESTON01
WestonSuperMareGB BS22 8RT

WestonSuperMareGB BS22 8RT

Lat: 51.351508, Lon: -2.933373

Elevation: 15

Station Type: Fine Offset WH1080

http://www.westonweather.co.uk

High Low Average
Temperature 68.8°F20.4°F 58.4°F14.7°F 63.0°F17.2°F
Dew Point 58.2°F14.6°F 48.6°F9.2°F 54.5°F12.5°F
Winds 18.0 mph W29.0 mph W 6.0 mph 9.7 mph 11.4 mph 18.3 mph
Wind Gusts 27.1 mph43.6 mph 8.6 mph13.8 mph 17.3 mph27.8 mph
Humidity 82% 65% 74%
Pressure 30.04 in1017.30 in 29.89 in1012.20 in -
Precipitation 0.00 in0.00 in - -
Hour Temp Dew Point Humidity Winds Wind Gusts Pressure Precip Precip Rate Daily Precip Total
12:00 AM 63.8°F17.7°C 58.2°F14.6°C 82% 9.2 mph W14.8 kmh W 14.0 mph22.5 kmh 29.92 in1013.2 mb 0.00 in0.0 mm 0.00 in0.0 mm 0.00 in0.0 mm
12:05 AM 63.8°F17.7°C 58.2°F14.6°C 82% 9.5 mph W15.3 kmh W 14.0 mph22.5 kmh 29.92 in1013.2 mb 0.00 in0.0 mm 0.00 in0.0 mm 0.00 in0.0 mm
12:10 AM 63.6°F17.6°C 58.0°F14.4°C 82% 7.9 mph W12.7 kmh W 11.3 mph18.2 kmh 29.92 in1013.2 mb 0.00 in0.0 mm 0.00 in0.0 mm 0.00 in0.0 mm
12:15 AM 63.6°F17.6°C 58.0°F14.4°C 82% 6.6 mph W10.6 kmh W 10.1 mph16.3 kmh 29.92 in1013.2 mb 0.00 in0.0 mm 0.00 in0.0 mm 0.00 in0.0 mm
12:20 AM 63.6°F17.6°C 58.0°F14.4°C 82% 7.3 mph WNW11.7 kmh WNW 13.1 mph21.1 kmh 29.92 in1013.2 mb 0.00 in0.0 mm 0.00 in0.0 mm 0.00 in0.0 mm
12:25 AM 63.6°F17.6°C 58.0°F14.4°C 82% 7.7 mph W12.4 kmh W 13.1 mph21.1 kmh 29.92 in1013.2 mb 0.00 in0.0 mm 0.00 in0.0 mm 0.00 in0.0 mm
12:30 AM 63.4°F17.4°C 57.8°F14.3°C 82% 9.9 mph W15.9 kmh W 14.0 mph22.5 kmh 29.92 in1013.2 mb 0.00 in0.0 mm 0.00 in0.0 mm 0.00 in0.0 mm
12:35 AM 63.4°F17.4°C 57.5°F14.2°C 81% 11.8 mph W19.0 kmh W 19.3 mph31.1 kmh 29.92 in1013.2 mb 0.00 in0.0 mm 0.00 in0.0 mm 0.00 in0.0 mm
12:40 AM 63.4°F17.4°C 57.5°F14.2°C 81% 10.9 mph WNW17.5 kmh WNW 19.3 mph31.1 kmh 29.92 in1013.2 mb 0.00 in0.0 mm 0.00 in0.0 mm 0.00 in0.0 mm
12:45 AM 63.4°F17.4°C 57.5°F14.2°C 81% 9.9 mph WNW15.9 kmh WNW 19.3 mph31.1 kmh 29.92 in1013.2 mb 0.00 in0.0 mm 0.00 in0.0 mm 0.00 in0.0 mm
12:50 AM 63.4°F17.4°C 57.5°F14.2°C 81% 9.5 mph W15.3 kmh W 13.7 mph22.0 kmh 29.92 in1013.2 mb 0.00 in0.0 mm 0.00 in0.0 mm 0.00 in0.0 mm
12:55 AM 63.4°F17.4°C 57.5°F14.2°C 81% 10.2 mph W16.4 kmh W 15.8 mph25.4 kmh 29.92 in1013.2 mb 0.00 in0.0 mm 0.00 in0.0 mm 0.00 in0.0 mm
01:00 AM 63.2°F17.3°C 57.3°F14.1°C 81% 10.0 mph WNW16.1 kmh WNW 16.4 mph26.4 kmh 29.92 in1013.2 mb 0.00 in0.0 mm 0.00 in0.0 mm 0.00 in0.0 mm
01:05 AM 63.0°F17.2°C 57.1°F13.9°C 81% 11.7 mph W18.8 kmh W 16.4 mph26.4 kmh 29.92 in1013.2 mb 0.00 in0.0 mm 0.00 in0.0 mm 0.00 in0.0 mm
01:10 AM 63.0°F17.2°C 57.1°F13.9°C 81% 12.0 mph W19.3 kmh W 16.4 mph26.4 kmh 29.92 in1013.2 mb 0.00 in0.0 mm 0.00 in0.0 mm 0.00 in0.0 mm
01:15 AM 62.9°F17.2°C 56.9°F13.8°C 81% 10.4 mph WNW16.7 kmh WNW 16.4 mph26.4 kmh 29.92 in1013.2 mb 0.00 in0.0 mm 0.00 in0.0 mm 0.00 in0.0 mm
01:20 AM 62.7°F17.1°C 56.8°F13.8°C 81% 9.6 mph WNW15.4 kmh WNW 16.4 mph26.4 kmh 29.92 in1013.2 mb 0.00 in0.0 mm 0.00 in0.0 mm 0.00 in0.0 mm
01:25 AM 62.5°F16.9°C 56.6°F13.7°C 81% 9.9 mph WNW15.9 kmh WNW 16.4 mph26.4 kmh 29.92 in1013.2 mb 0.00 in0.0 mm 0.00 in0.0 mm 0.00 in0.0 mm
01:30 AM 62.5°F16.9°C 56.6°F13.7°C 81% 10.4 mph WNW16.7 kmh WNW 14.3 mph23.0 kmh 29.92 in1013.2 mb 0.00 in0.0 mm 0.00 in0.0 mm 0.00 in0.0 mm
01:35 AM 62.3°F16.8°C 56.4°F13.6°C 81% 11.8 mph W19.0 kmh W 16.7 mph26.9 kmh 29.92 in1013.2 mb 0.00 in0.0 mm 0.00 in0.0 mm 0.00 in0.0 mm
01:40 AM 62.2°F16.8°C 56.2°F13.4°C 81% 11.9 mph WNW19.2 kmh WNW 16.7 mph26.9 kmh 29.92 in1013.2 mb 0.00 in0.0 mm 0.00 in0.0 mm 0.00 in0.0 mm
01:45 AM 62.2°F16.8°C 55.9°F13.3°C 80% 13.9 mph WNW22.4 kmh WNW 20.5 mph33.0 kmh 29.92 in1013.2 mb 0.00 in0.0 mm 0.00 in0.0 mm 0.00 in0.0 mm
01:50 AM 62.2°F16.8°C 55.9°F13.3°C 80% 13.5 mph WNW21.7 kmh WNW 20.5 mph33.0 kmh 29.92 in1013.2 mb 0.00 in0.0 mm 0.00 in0.0 mm 0.00 in0.0 mm
01:55 AM 62.2°F16.8°C 55.9°F13.3°C 80% 9.5 mph W15.3 kmh W 18.7 mph30.1 kmh 29.92 in1013.2 mb 0.00 in0.0 mm 0.00 in0.0 mm 0.00 in0.0 mm
02:00 AM 62.0°F16.7°C 55.7°F13.2°C 80% 8.8 mph W14.2 kmh W 14.0 mph22.5 kmh 29.92 in1013.2 mb 0.00 in0.0 mm 0.00 in0.0 mm 0.00 in0.0 mm
02:05 AM 62.0°F16.7°C 55.7°F13.2°C 80% 9.8 mph W15.8 kmh W 14.0 mph22.5 kmh 29.92 in1013.2 mb 0.00 in0.0 mm 0.00 in0.0 mm 0.00 in0.0 mm
02:10 AM 62.0°F16.7°C 55.7°F13.2°C 80% 8.9 mph W14.3 kmh W 13.1 mph21.1 kmh 29.92 in1013.2 mb 0.00 in0.0 mm 0.00 in0.0 mm 0.00 in0.0 mm
02:15 AM 62.0°F16.7°C 55.7°F13.2°C 80% 9.8 mph W15.8 kmh W 14.6 mph23.5 kmh 29.92 in1013.2 mb 0.00 in0.0 mm 0.00 in0.0 mm 0.00 in0.0 mm
02:20 AM 62.0°F16.7°C 55.7°F13.2°C 80% 10.8 mph WNW17.4 kmh WNW 17.3 mph27.8 kmh 29.92 in1013.2 mb 0.00 in0.0 mm 0.00 in0.0 mm 0.00 in0.0 mm
02:25 AM 62.0°F16.7°C 55.7°F13.2°C 80% 11.2 mph WNW18.0 kmh WNW 18.4 mph29.6 kmh 29.92 in1013.2 mb 0.00 in0.0 mm 0.00 in0.0 mm 0.00 in0.0 mm
02:30 AM 61.8°F16.6°C 55.6°F13.1°C 80% 9.2 mph WNW14.8 kmh WNW 18.4 mph29.6 kmh 29.92 in1013.2 mb 0.00 in0.0 mm 0.00 in0.0 mm 0.00 in0.0 mm
02:35 AM 61.8°F16.6°C 55.6°F13.1°C 80% 6.4 mph W10.3 kmh W 8.6 mph13.8 kmh 29.92 in1013.2 mb 0.00 in0.0 mm 0.00 in0.0 mm 0.00 in0.0 mm
02:40 AM 61.8°F16.6°C 55.6°F13.1°C 80% 6.0 mph W9.7 kmh W 9.5 mph15.3 kmh 29.92 in1013.2 mb 0.00 in0.0 mm 0.00 in0.0 mm 0.00 in0.0 mm
02:45 AM 61.8°F16.6°C 55.6°F13.1°C 80% 7.6 mph WNW12.2 kmh WNW 13.1 mph21.1 kmh 29.92 in1013.2 mb 0.00 in0.0 mm 0.00 in0.0 mm 0.00 in0.0 mm
02:50 AM 61.8°F16.6°C 55.6°F13.1°C 80% 8.9 mph W14.3 kmh W 14.0 mph22.5 kmh 29.92 in1013.2 mb 0.00 in0.0 mm 0.00 in0.0 mm 0.00 in0.0 mm
02:55 AM 61.8°F16.6°C 55.6°F13.1°C 80% 7.9 mph W12.7 kmh W 14.0 mph22.5 kmh 29.92 in1013.2 mb 0.00 in0.0 mm 0.00 in0.0 mm 0.00 in0.0 mm
03:00 AM 61.8°F16.6°C 55.9°F13.3°C 81% 7.3 mph W11.7 kmh W 14.0 mph22.5 kmh 29.92 in1013.2 mb 0.00 in0.0 mm 0.00 in0.0 mm 0.00 in0.0 mm
03:05 AM 61.6°F16.4°C 55.7°F13.2°C 81% 7.1 mph W11.4 kmh W 12.8 mph20.6 kmh 29.92 in1013.2 mb 0.00 in0.0 mm 0.00 in0.0 mm 0.00 in0.0 mm
03:10 AM 61.6°F16.4°C 55.4°F13.0°C 80% 7.4 mph W11.9 kmh W 12.8 mph20.6 kmh 29.92 in1013.2 mb 0.00 in0.0 mm 0.00 in0.0 mm 0.00 in0.0 mm
03:15 AM 61.6°F16.4°C 55.7°F13.2°C 81% 8.0 mph W12.9 kmh W 10.7 mph17.2 kmh 29.89 in1012.2 mb 0.00 in0.0 mm 0.00 in0.0 mm 0.00 in0.0 mm
03:20 AM 61.6°F16.4°C 55.7°F13.2°C 81% 7.9 mph W12.7 kmh W 10.7 mph17.2 kmh 29.89 in1012.2 mb 0.00 in0.0 mm 0.00 in0.0 mm 0.00 in0.0 mm
03:25 AM 61.6°F16.4°C 55.4°F13.0°C 80% 8.5 mph WNW13.7 kmh WNW 14.0 mph22.5 kmh 29.89 in1012.2 mb 0.00 in0.0 mm 0.00 in0.0 mm 0.00 in0.0 mm
03:30 AM 61.6°F16.4°C 55.4°F13.0°C 80% 9.8 mph NW15.8 kmh NW 14.0 mph22.5 kmh 29.92 in1013.2 mb 0.00 in0.0 mm 0.00 in0.0 mm 0.00 in0.0 mm
03:35 AM 61.4°F16.3°C 55.2°F12.9°C 80% 9.9 mph NW15.9 kmh NW 13.1 mph21.1 kmh 29.92 in1013.2 mb 0.00 in0.0 mm 0.00 in0.0 mm 0.00 in0.0 mm
03:40 AM 61.3°F16.3°C 55.4°F13.0°C 81% 10.0 mph W16.1 kmh W 13.1 mph21.1 kmh 29.92 in1013.2 mb 0.00 in0.0 mm 0.00 in0.0 mm 0.00 in0.0 mm
03:45 AM 61.1°F16.2°C 55.2°F12.9°C 81% 9.6 mph W15.4 kmh W 12.8 mph20.6 kmh 29.89 in1012.2 mb 0.00 in0.0 mm 0.00 in0.0 mm 0.00 in0.0 mm
03:50 AM 61.1°F16.2°C 55.2°F12.9°C 81% 8.4 mph W13.5 kmh W 11.6 mph18.7 kmh 29.89 in1012.2 mb 0.00 in0.0 mm 0.00 in0.0 mm 0.00 in0.0 mm
03:55 AM 61.1°F16.2°C 55.2°F12.9°C 81% 8.0 mph W12.9 kmh W 11.3 mph18.2 kmh 29.89 in1012.2 mb 0.00 in0.0 mm 0.00 in0.0 mm 0.00 in0.0 mm
04:00 AM 61.1°F16.2°C 55.2°F12.9°C 81% 9.8 mph WNW15.8 kmh WNW 16.1 mph25.9 kmh 29.89 in1012.2 mb 0.00 in0.0 mm 0.00 in0.0 mm 0.00 in0.0 mm
04:05 AM 60.9°F16.1°C 55.0°F12.8°C 81% 11.0 mph WNW17.7 kmh WNW 16.1 mph25.9 kmh 29.89 in1012.2 mb 0.00 in0.0 mm 0.00 in0.0 mm 0.00 in0.0 mm
04:10 AM 60.9°F16.1°C 55.4°F13.0°C 82% 10.2 mph W16.4 kmh W 16.1 mph25.9 kmh 29.89 in1012.2 mb 0.00 in0.0 mm 0.00 in0.0 mm 0.00 in0.0 mm
04:15 AM 60.9°F16.1°C 55.4°F13.0°C 82% 9.1 mph W14.6 kmh W 13.1 mph21.1 kmh 29.89 in1012.2 mb 0.00 in0.0 mm 0.00 in0.0 mm 0.00 in0.0 mm
04:20 AM 60.9°F16.1°C 55.4°F13.0°C 82% 8.5 mph W13.7 kmh W 14.3 mph23.0 kmh 29.89 in1012.2 mb 0.00 in0.0 mm 0.00 in0.0 mm 0.00 in0.0 mm
04:25 AM 60.9°F16.1°C 55.4°F13.0°C 82% 8.5 mph W13.7 kmh W 14.3 mph23.0 kmh 29.89 in1012.2 mb 0.00 in0.0 mm 0.00 in0.0 mm 0.00 in0.0 mm
04:30 AM 60.9°F16.1°C 55.4°F13.0°C 82% 8.6 mph W13.8 kmh W 13.7 mph22.0 kmh 29.89 in1012.2 mb 0.00 in0.0 mm 0.00 in0.0 mm 0.00 in0.0 mm
04:35 AM 60.9°F16.1°C 55.4°F13.0°C 82% 7.8 mph W12.6 kmh W 13.7 mph22.0 kmh 29.89 in1012.2 mb 0.00 in0.0 mm 0.00 in0.0 mm 0.00 in0.0 mm
04:40 AM 60.9°F16.1°C 55.0°F12.8°C 81% 7.9 mph W12.7 kmh W 11.6 mph18.7 kmh 29.89 in1012.2 mb 0.00 in0.0 mm 0.00 in0.0 mm 0.00 in0.0 mm
04:45 AM 61.1°F16.2°C 55.2°F12.9°C 81% 8.7 mph W14.0 kmh W 11.6 mph18.7 kmh 29.92 in1013.2 mb 0.00 in0.0 mm 0.00 in0.0 mm 0.00 in0.0 mm
04:50 AM 61.1°F16.2°C 55.2°F12.9°C 81% 9.1 mph W14.6 kmh W 12.8 mph20.6 kmh 29.92 in1013.2 mb 0.00 in0.0 mm 0.00 in0.0 mm 0.00 in0.0 mm
04:55 AM 61.1°F16.2°C 55.2°F12.9°C 81% 8.5 mph WSW13.7 kmh WSW 12.8 mph20.6 kmh 29.92 in1013.2 mb 0.00 in0.0 mm 0.00 in0.0 mm 0.00 in0.0 mm
05:00 AM 61.3°F16.3°C 55.4°F13.0°C 81% 9.1 mph W14.6 kmh W 16.1 mph25.9 kmh 29.92 in1013.2 mb 0.00 in0.0 mm 0.00 in0.0 mm 0.00 in0.0 mm
05:05 AM 61.3°F16.3°C 55.0°F12.8°C 80% 9.1 mph W14.6 kmh W 16.4 mph26.4 kmh 29.92 in1013.2 mb 0.00 in0.0 mm 0.00 in0.0 mm 0.00 in0.0 mm
05:10 AM 61.4°F16.3°C 55.2°F12.9°C 80% 8.0 mph W12.9 kmh W 16.4 mph26.4 kmh 29.92 in1013.2 mb 0.00 in0.0 mm 0.00 in0.0 mm 0.00 in0.0 mm
05:15 AM 61.4°F16.3°C 55.2°F12.9°C 80% 8.6 mph W13.8 kmh W 10.7 mph17.2 kmh 29.92 in1013.2 mb 0.00 in0.0 mm 0.00 in0.0 mm 0.00 in0.0 mm
05:20 AM 61.6°F16.4°C 55.4°F13.0°C 80% 8.8 mph WSW14.2 kmh WSW 10.7 mph17.2 kmh 29.92 in1013.2 mb 0.00 in0.0 mm 0.00 in0.0 mm 0.00 in0.0 mm
05:25 AM 61.6°F16.4°C 55.4°F13.0°C 80% 7.9 mph W12.7 kmh W 10.7 mph17.2 kmh 29.92 in1013.2 mb 0.00 in0.0 mm 0.00 in0.0 mm 0.00 in0.0 mm
05:30 AM 61.6°F16.4°C 55.0°F12.8°C 79% 6.4 mph W10.3 kmh W 10.1 mph16.3 kmh 29.89 in1012.2 mb 0.00 in0.0 mm 0.00 in0.0 mm 0.00 in0.0 mm
05:35 AM 61.8°F16.6°C 55.2°F12.9°C 79% 6.4 mph WSW10.3 kmh WSW 8.6 mph13.8 kmh 29.89 in1012.2 mb 0.00 in0.0 mm 0.00 in0.0 mm 0.00 in0.0 mm
05:40 AM 61.8°F16.6°C 55.2°F12.9°C 79% 6.1 mph WSW9.8 kmh WSW 8.6 mph13.8 kmh 29.89 in1012.2 mb 0.00 in0.0 mm 0.00 in0.0 mm 0.00 in0.0 mm
05:45 AM 62.0°F16.7°C 55.4°F13.0°C 79% 6.4 mph W10.3 kmh W 10.7 mph17.2 kmh 29.89 in1012.2 mb 0.00 in0.0 mm 0.00 in0.0 mm 0.00 in0.0 mm
05:50 AM 62.0°F16.7°C 55.4°F13.0°C 79% 7.6 mph W12.2 kmh W 10.7 mph17.2 kmh 29.89 in1012.2 mb 0.00 in0.0 mm 0.00 in0.0 mm 0.00 in0.0 mm
05:55 AM 62.0°F16.7°C 55.4°F13.0°C 79% 8.4 mph W13.5 kmh W 10.1 mph16.3 kmh 29.89 in1012.2 mb 0.00 in0.0 mm 0.00 in0.0 mm 0.00 in0.0 mm
06:00 AM 62.0°F16.7°C 55.4°F13.0°C 79% 6.8 mph WSW10.9 kmh WSW 8.6 mph13.8 kmh 29.89 in1012.2 mb 0.00 in0.0 mm 0.00 in0.0 mm 0.00 in0.0 mm
06:05 AM 62.0°F16.7°C 55.4°F13.0°C 79% 6.3 mph WSW10.1 kmh WSW 8.9 mph14.3 kmh 29.89 in1012.2 mb 0.00 in0.0 mm 0.00 in0.0 mm 0.00 in0.0 mm
06:10 AM 62.0°F16.7°C 55.4°F13.0°C 79% 6.4 mph W10.3 kmh W 8.9 mph14.3 kmh 29.89 in1012.2 mb 0.00 in0.0 mm 0.00 in0.0 mm 0.00 in0.0 mm
06:15 AM 62.0°F16.7°C 55.4°F13.0°C 79% 9.6 mph W15.4 kmh W 16.4 mph26.4 kmh 29.92 in1013.2 mb 0.00 in0.0 mm 0.00 in0.0 mm 0.00 in0.0 mm
06:20 AM 61.8°F16.6°C 55.2°F12.9°C 79% 11.2 mph W18.0 kmh W 16.4 mph26.4 kmh 29.92 in1013.2 mb 0.00 in0.0 mm 0.00 in0.0 mm 0.00 in0.0 mm
06:25 AM 61.6°F16.4°C 55.4°F13.0°C 80% 9.6 mph WSW15.4 kmh WSW 13.4 mph21.6 kmh 29.92 in1013.2 mb 0.00 in0.0 mm 0.00 in0.0 mm 0.00 in0.0 mm
06:30 AM 61.4°F16.3°C 54.9°F12.7°C 79% 9.7 mph W15.6 kmh W 18.1 mph29.1 kmh 29.89 in1012.2 mb 0.00 in0.0 mm 0.00 in0.0 mm 0.00 in0.0 mm
06:35 AM 61.4°F16.3°C 54.9°F12.7°C 79% 9.9 mph W15.9 kmh W 18.1 mph29.1 kmh 29.89 in1012.2 mb 0.00 in0.0 mm 0.00 in0.0 mm 0.00 in0.0 mm
06:40 AM 61.4°F16.3°C 54.9°F12.7°C 79% 9.2 mph W14.8 kmh W 16.4 mph26.4 kmh 29.89 in1012.2 mb 0.00 in0.0 mm 0.00 in0.0 mm 0.00 in0.0 mm
06:45 AM 61.6°F16.4°C 54.7°F12.6°C 78% 8.8 mph W14.2 kmh W 16.4 mph26.4 kmh 29.92 in1013.2 mb 0.00 in0.0 mm 0.00 in0.0 mm 0.00 in0.0 mm
06:50 AM 61.6°F16.4°C 54.7°F12.6°C 78% 9.5 mph W15.3 kmh W 16.1 mph25.9 kmh 29.92 in1013.2 mb 0.00 in0.0 mm 0.00 in0.0 mm 0.00 in0.0 mm
06:55 AM 61.6°F16.4°C 54.7°F12.6°C 78% 10.1 mph W16.3 kmh W 16.1 mph25.9 kmh 29.92 in1013.2 mb 0.00 in0.0 mm 0.00 in0.0 mm 0.00 in0.0 mm
07:00 AM 61.6°F16.4°C 54.3°F12.4°C 77% 10.1 mph W16.3 kmh W 14.3 mph23.0 kmh 29.92 in1013.2 mb 0.00 in0.0 mm 0.00 in0.0 mm 0.00 in0.0 mm
07:05 AM 61.6°F16.4°C 54.3°F12.4°C 77% 10.9 mph W17.5 kmh W 17.0 mph27.4 kmh 29.92 in1013.2 mb 0.00 in0.0 mm 0.00 in0.0 mm 0.00 in0.0 mm
07:10 AM 61.6°F16.4°C 54.3°F12.4°C 77% 10.8 mph W17.4 kmh W 17.0 mph27.4 kmh 29.92 in1013.2 mb 0.00 in0.0 mm 0.00 in0.0 mm 0.00 in0.0 mm
07:15 AM 61.4°F16.3°C 54.2°F12.3°C 77% 11.6 mph W18.7 kmh W 17.3 mph27.8 kmh 29.92 in1013.2 mb 0.00 in0.0 mm 0.00 in0.0 mm 0.00 in0.0 mm
07:20 AM 61.4°F16.3°C 53.8°F12.1°C 76% 11.6 mph WSW18.7 kmh WSW 17.3 mph27.8 kmh 29.92 in1013.2 mb 0.00 in0.0 mm 0.00 in0.0 mm 0.00 in0.0 mm
07:25 AM 61.6°F16.4°C 54.0°F12.2°C 76% 9.7 mph WSW15.6 kmh WSW 12.8 mph20.6 kmh 29.92 in1013.2 mb 0.00 in0.0 mm 0.00 in0.0 mm 0.00 in0.0 mm
07:30 AM 61.8°F16.6°C 54.1°F12.3°C 76% 10.6 mph W17.1 kmh W 16.1 mph25.9 kmh 29.92 in1013.2 mb 0.00 in0.0 mm 0.00 in0.0 mm 0.00 in0.0 mm
07:35 AM 62.0°F16.7°C 54.0°F12.2°C 75% 12.1 mph W19.5 kmh W 17.3 mph27.8 kmh 29.92 in1013.2 mb 0.00 in0.0 mm 0.00 in0.0 mm 0.00 in0.0 mm
07:40 AM 62.0°F16.7°C 54.0°F12.2°C 75% 10.7 mph W17.2 kmh W 17.3 mph27.8 kmh 29.92 in1013.2 mb 0.00 in0.0 mm 0.00 in0.0 mm 0.00 in0.0 mm
07:45 AM 62.7°F17.1°C 54.6°F12.6°C 75% 8.6 mph W13.8 kmh W 16.4 mph26.4 kmh 29.92 in1013.2 mb 0.00 in0.0 mm 0.00 in0.0 mm 0.00 in0.0 mm
07:50 AM 63.0°F17.2°C 54.6°F12.6°C 74% 11.6 mph WSW18.7 kmh WSW 17.6 mph28.3 kmh 29.92 in1013.2 mb 0.00 in0.0 mm 0.00 in0.0 mm 0.00 in0.0 mm
07:55 AM 63.4°F17.4°C 54.6°F12.6°C 73% 13.5 mph WSW21.7 kmh WSW 17.6 mph28.3 kmh 29.92 in1013.2 mb 0.00 in0.0 mm 0.00 in0.0 mm 0.00 in0.0 mm
08:00 AM 63.6°F17.6°C 54.4°F12.4°C 72% 12.4 mph W20.0 kmh W 16.7 mph26.9 kmh 29.92 in1013.2 mb 0.00 in0.0 mm 0.00 in0.0 mm 0.00 in0.0 mm
08:05 AM 64.0°F17.8°C 54.7°F12.6°C 72% 10.7 mph W17.2 kmh W 14.3 mph23.0 kmh 29.92 in1013.2 mb 0.00 in0.0 mm 0.00 in0.0 mm 0.00 in0.0 mm
08:10 AM 64.3°F17.9°C 55.1°F12.8°C 72% 10.1 mph W16.3 kmh W 16.4 mph26.4 kmh 29.92 in1013.2 mb 0.00 in0.0 mm 0.00 in0.0 mm 0.00 in0.0 mm
08:15 AM 64.5°F18.1°C 54.9°F12.7°C 71% 11.1 mph W17.9 kmh W 17.6 mph28.3 kmh 29.92 in1013.2 mb 0.00 in0.0 mm 0.00 in0.0 mm 0.00 in0.0 mm
08:20 AM 64.5°F18.1°C 54.9°F12.7°C 71% 12.9 mph W20.8 kmh W 17.6 mph28.3 kmh 29.92 in1013.2 mb 0.00 in0.0 mm 0.00 in0.0 mm 0.00 in0.0 mm
08:25 AM 64.1°F17.8°C 54.5°F12.5°C 71% 12.2 mph W19.6 kmh W 17.6 mph28.3 kmh 29.92 in1013.2 mb 0.00 in0.0 mm 0.00 in0.0 mm 0.00 in0.0 mm
08:30 AM 64.1°F17.8°C 54.5°F12.5°C 71% 10.7 mph W17.2 kmh W 14.3 mph23.0 kmh 29.92 in1013.2 mb 0.00 in0.0 mm 0.00 in0.0 mm 0.00 in0.0 mm
08:35 AM 64.0°F17.8°C 54.7°F12.6°C 72% 10.9 mph W17.5 kmh W 14.0 mph22.5 kmh 29.92 in1013.2 mb 0.00 in0.0 mm 0.00 in0.0 mm 0.00 in0.0 mm
08:40 AM 63.8°F17.7°C 54.6°F12.6°C 72% 12.0 mph WSW19.3 kmh WSW 19.6 mph31.5 kmh 29.92 in1013.2 mb 0.00 in0.0 mm 0.00 in0.0 mm 0.00 in0.0 mm
08:45 AM 63.6°F17.6°C 54.4°F12.4°C 72% 11.9 mph WSW19.2 kmh WSW 19.6 mph31.5 kmh 29.92 in1013.2 mb 0.00 in0.0 mm 0.00 in0.0 mm 0.00 in0.0 mm
08:50 AM 63.6°F17.6°C 54.4°F12.4°C 72% 10.2 mph W16.4 kmh W 14.0 mph22.5 kmh 29.92 in1013.2 mb 0.00 in0.0 mm 0.00 in0.0 mm 0.00 in0.0 mm
08:55 AM 63.6°F17.6°C 54.8°F12.7°C 73% 10.3 mph W16.6 kmh W 14.3 mph23.0 kmh 29.92 in1013.2 mb 0.00 in0.0 mm 0.00 in0.0 mm 0.00 in0.0 mm
09:00 AM 63.4°F17.4°C 54.6°F12.6°C 73% 11.8 mph W19.0 kmh W 22.9 mph36.9 kmh 29.92 in1013.2 mb 0.00 in0.0 mm 0.00 in0.0 mm 0.00 in0.0 mm
09:05 AM 63.4°F17.4°C 55.0°F12.8°C 74% 10.2 mph W16.4 kmh W 22.9 mph36.9 kmh 29.92 in1013.2 mb 0.00 in0.0 mm 0.00 in0.0 mm 0.00 in0.0 mm
09:10 AM 63.2°F17.3°C 54.8°F12.7°C 74% 9.6 mph W15.4 kmh W 14.6 mph23.5 kmh 29.92 in1013.2 mb 0.00 in0.0 mm 0.00 in0.0 mm 0.00 in0.0 mm
09:15 AM 63.2°F17.3°C 55.2°F12.9°C 75% 12.7 mph W20.4 kmh W 17.0 mph27.4 kmh 29.92 in1013.2 mb 0.00 in0.0 mm 0.00 in0.0 mm 0.00 in0.0 mm
09:20 AM 63.0°F17.2°C 55.0°F12.8°C 75% 15.3 mph W24.6 kmh W 18.7 mph30.1 kmh 29.92 in1013.2 mb 0.00 in0.0 mm 0.00 in0.0 mm 0.00 in0.0 mm
09:25 AM 63.0°F17.2°C 55.4°F13.0°C 76% 15.0 mph WSW24.1 kmh WSW 18.7 mph30.1 kmh 29.92 in1013.2 mb 0.00 in0.0 mm 0.00 in0.0 mm 0.00 in0.0 mm
09:30 AM 63.0°F17.2°C 55.4°F13.0°C 76% 12.9 mph W20.8 kmh W 17.0 mph27.4 kmh 29.95 in1014.2 mb 0.00 in0.0 mm 0.00 in0.0 mm 0.00 in0.0 mm
09:35 AM 63.0°F17.2°C 55.4°F13.0°C 76% 11.6 mph WNW18.7 kmh WNW 19.0 mph30.6 kmh 29.95 in1014.2 mb 0.00 in0.0 mm 0.00 in0.0 mm 0.00 in0.0 mm
09:40 AM 63.2°F17.3°C 55.5°F13.1°C 76% 11.6 mph W18.7 kmh W 19.0 mph30.6 kmh 29.95 in1014.2 mb 0.00 in0.0 mm 0.00 in0.0 mm 0.00 in0.0 mm
09:45 AM 63.4°F17.4°C 55.7°F13.2°C 76% 11.5 mph W18.5 kmh W 17.3 mph27.8 kmh 29.95 in1014.2 mb 0.00 in0.0 mm 0.00 in0.0 mm 0.00 in0.0 mm
09:50 AM 63.6°F17.6°C 55.9°F13.3°C 76% 9.9 mph WNW15.9 kmh WNW 16.7 mph26.9 kmh 29.95 in1014.2 mb 0.00 in0.0 mm 0.00 in0.0 mm 0.00 in0.0 mm
09:55 AM 63.8°F17.7°C 55.7°F13.2°C 75% 6.9 mph W11.1 kmh W 13.4 mph21.6 kmh 29.95 in1014.2 mb 0.00 in0.0 mm 0.00 in0.0 mm 0.00 in0.0 mm
10:00 AM 63.8°F17.7°C 55.7°F13.2°C 75% 8.4 mph WNW13.5 kmh WNW 18.4 mph29.6 kmh 29.92 in1013.2 mb 0.00 in0.0 mm 0.00 in0.0 mm 0.00 in0.0 mm
10:05 AM 64.0°F17.8°C 55.9°F13.3°C 75% 10.3 mph WNW16.6 kmh WNW 18.4 mph29.6 kmh 29.92 in1013.2 mb 0.00 in0.0 mm 0.00 in0.0 mm 0.00 in0.0 mm
10:10 AM 64.1°F17.8°C 56.0°F13.3°C 75% 11.9 mph WNW19.2 kmh WNW 20.5 mph33.0 kmh 29.92 in1013.2 mb 0.00 in0.0 mm 0.00 in0.0 mm 0.00 in0.0 mm
10:15 AM 64.3°F17.9°C 56.2°F13.4°C 75% 13.9 mph WNW22.4 kmh WNW 20.5 mph33.0 kmh 29.95 in1014.2 mb 0.00 in0.0 mm 0.00 in0.0 mm 0.00 in0.0 mm
10:20 AM 64.7°F18.2°C 56.6°F13.7°C 75% 14.9 mph WNW24.0 kmh WNW 23.2 mph37.3 kmh 29.95 in1014.2 mb 0.00 in0.0 mm 0.00 in0.0 mm 0.00 in0.0 mm
10:25 AM 64.8°F18.2°C 56.4°F13.6°C 74% 16.1 mph WNW25.9 kmh WNW 23.2 mph37.3 kmh 29.95 in1014.2 mb 0.00 in0.0 mm 0.00 in0.0 mm 0.00 in0.0 mm
10:30 AM 65.6°F18.7°C 56.7°F13.7°C 73% 15.2 mph W24.5 kmh W 22.0 mph35.4 kmh 29.95 in1014.2 mb 0.00 in0.0 mm 0.00 in0.0 mm 0.00 in0.0 mm
10:35 AM 65.9°F18.8°C 57.0°F13.9°C 73% 14.7 mph W23.7 kmh W 23.5 mph37.8 kmh 29.95 in1014.2 mb 0.00 in0.0 mm 0.00 in0.0 mm 0.00 in0.0 mm
10:40 AM 65.9°F18.8°C 57.0°F13.9°C 73% 17.5 mph W28.2 kmh W 27.1 mph43.6 kmh 29.95 in1014.2 mb 0.00 in0.0 mm 0.00 in0.0 mm 0.00 in0.0 mm
10:45 AM 66.3°F19.1°C 57.0°F13.9°C 72% 18.0 mph W29.0 kmh W 27.1 mph43.6 kmh 29.95 in1014.2 mb 0.00 in0.0 mm 0.00 in0.0 mm 0.00 in0.0 mm
10:50 AM 66.7°F19.3°C 56.9°F13.8°C 71% 17.0 mph W27.4 kmh W 25.9 mph41.7 kmh 29.95 in1014.2 mb 0.00 in0.0 mm 0.00 in0.0 mm 0.00 in0.0 mm
10:55 AM 67.0°F19.4°C 57.3°F14.1°C 71% 15.5 mph W24.9 kmh W 25.9 mph41.7 kmh 29.95 in1014.2 mb 0.00 in0.0 mm 0.00 in0.0 mm 0.00 in0.0 mm
11:00 AM 67.0°F19.4°C 57.3°F14.1°C 71% 12.6 mph W20.3 kmh W 23.2 mph37.3 kmh 29.95 in1014.2 mb 0.00 in0.0 mm 0.00 in0.0 mm 0.00 in0.0 mm
11:05 AM 67.4°F19.7°C 57.2°F14.0°C 70% 15.1 mph WNW24.3 kmh WNW 23.2 mph37.3 kmh 29.95 in1014.2 mb 0.00 in0.0 mm 0.00 in0.0 mm 0.00 in0.0 mm
11:10 AM 67.2°F19.6°C 57.1°F13.9°C 70% 13.9 mph W22.4 kmh W 23.2 mph37.3 kmh 29.95 in1014.2 mb 0.00 in0.0 mm 0.00 in0.0 mm 0.00 in0.0 mm
11:15 AM 67.7°F19.8°C 57.6°F14.2°C 70% 12.7 mph W20.4 kmh W 22.6 mph36.4 kmh 29.95 in1014.2 mb 0.00 in0.0 mm 0.00 in0.0 mm 0.00 in0.0 mm
11:20 AM 67.6°F19.8°C 57.0°F13.9°C 69% 12.0 mph W19.3 kmh W 19.6 mph31.5 kmh 29.95 in1014.2 mb 0.00 in0.0 mm 0.00 in0.0 mm 0.00 in0.0 mm
11:25 AM 67.6°F19.8°C 57.0°F13.9°C 69% 13.9 mph W22.4 kmh W 24.7 mph39.8 kmh 29.95 in1014.2 mb 0.00 in0.0 mm 0.00 in0.0 mm 0.00 in0.0 mm
11:30 AM 67.6°F19.8°C 56.6°F13.7°C 68% 15.6 mph WNW25.1 kmh WNW 24.7 mph39.8 kmh 29.95 in1014.2 mb 0.00 in0.0 mm 0.00 in0.0 mm 0.00 in0.0 mm
11:35 AM 67.9°F19.9°C 57.0°F13.9°C 68% 14.8 mph WNW23.8 kmh WNW 22.6 mph36.4 kmh 29.95 in1014.2 mb 0.00 in0.0 mm 0.00 in0.0 mm 0.00 in0.0 mm
11:40 AM 68.1°F20.1°C 56.7°F13.7°C 67% 14.8 mph WNW23.8 kmh WNW 22.6 mph36.4 kmh 29.95 in1014.2 mb 0.00 in0.0 mm 0.00 in0.0 mm 0.00 in0.0 mm
11:45 AM 68.1°F20.1°C 56.7°F13.7°C 67% 17.0 mph WNW27.4 kmh WNW 23.8 mph38.3 kmh 29.95 in1014.2 mb 0.00 in0.0 mm 0.00 in0.0 mm 0.00 in0.0 mm
11:50 AM 68.1°F20.1°C 56.7°F13.7°C 67% 15.3 mph W24.6 kmh W 23.8 mph38.3 kmh 29.95 in1014.2 mb 0.00 in0.0 mm 0.00 in0.0 mm 0.00 in0.0 mm
11:55 AM 68.4°F20.2°C 57.1°F13.9°C 67% 12.7 mph WSW20.4 kmh WSW 22.0 mph35.4 kmh 29.95 in1014.2 mb 0.00 in0.0 mm 0.00 in0.0 mm 0.00 in0.0 mm
12:00 PM 68.3°F20.2°C 56.5°F13.6°C 66% 14.2 mph W22.9 kmh W 22.0 mph35.4 kmh 29.95 in1014.2 mb 0.00 in0.0 mm 0.00 in0.0 mm 0.00 in0.0 mm
12:05 PM 68.3°F20.2°C 56.5°F13.6°C 66% 15.0 mph WNW24.1 kmh WNW 18.7 mph30.1 kmh 29.95 in1014.2 mb 0.00 in0.0 mm 0.00 in0.0 mm 0.00 in0.0 mm
12:10 PM 68.3°F20.2°C 56.5°F13.6°C 66% 13.1 mph W21.1 kmh W 18.7 mph30.1 kmh 29.95 in1014.2 mb 0.00 in0.0 mm 0.00 in0.0 mm 0.00 in0.0 mm
12:15 PM 68.4°F20.2°C 56.6°F13.7°C 66% 12.5 mph W20.1 kmh W 18.4 mph29.6 kmh 29.95 in1014.2 mb 0.00 in0.0 mm 0.00 in0.0 mm 0.00 in0.0 mm
12:20 PM 68.4°F20.2°C 56.6°F13.7°C 66% 15.2 mph W24.5 kmh W 19.3 mph31.1 kmh 29.95 in1014.2 mb 0.00 in0.0 mm 0.00 in0.0 mm 0.00 in0.0 mm
12:25 PM 68.3°F20.2°C 56.5°F13.6°C 66% 15.7 mph W25.3 kmh W 20.2 mph32.5 kmh 29.95 in1014.2 mb 0.00 in0.0 mm 0.00 in0.0 mm 0.00 in0.0 mm
12:30 PM 68.3°F20.2°C 56.0°F13.3°C 65% 16.2 mph WNW26.1 kmh WNW 23.5 mph37.8 kmh 29.95 in1014.2 mb 0.00 in0.0 mm 0.00 in0.0 mm 0.00 in0.0 mm
12:35 PM 68.6°F20.3°C 56.4°F13.6°C 65% 16.6 mph W26.7 kmh W 23.5 mph37.8 kmh 29.95 in1014.2 mb 0.00 in0.0 mm 0.00 in0.0 mm 0.00 in0.0 mm
12:40 PM 68.6°F20.3°C 56.4°F13.6°C 65% 17.1 mph W27.5 kmh W 23.2 mph37.3 kmh 29.95 in1014.2 mb 0.00 in0.0 mm 0.00 in0.0 mm 0.00 in0.0 mm
12:45 PM 68.4°F20.2°C 56.6°F13.7°C 66% 15.9 mph WNW25.6 kmh WNW 22.9 mph36.9 kmh 29.95 in1014.2 mb 0.00 in0.0 mm 0.00 in0.0 mm 0.00 in0.0 mm
12:50 PM 68.4°F20.2°C 56.6°F13.7°C 66% 14.4 mph W23.2 kmh W 19.0 mph30.6 kmh 29.95 in1014.2 mb 0.00 in0.0 mm 0.00 in0.0 mm 0.00 in0.0 mm
12:55 PM 68.6°F20.3°C 56.4°F13.6°C 65% 12.8 mph W20.6 kmh W 22.9 mph36.9 kmh 29.95 in1014.2 mb 0.00 in0.0 mm 0.00 in0.0 mm 0.00 in0.0 mm
01:00 PM 68.8°F20.4°C 56.6°F13.7°C 65% 11.8 mph WNW19.0 kmh WNW 22.9 mph36.9 kmh 29.95 in1014.2 mb 0.00 in0.0 mm 0.00 in0.0 mm 0.00 in0.0 mm
01:05 PM 68.3°F20.2°C 56.0°F13.3°C 65% 13.1 mph W21.1 kmh W 20.2 mph32.5 kmh 29.95 in1014.2 mb 0.00 in0.0 mm 0.00 in0.0 mm 0.00 in0.0 mm
01:10 PM 67.7°F19.8°C 56.0°F13.3°C 66% 15.3 mph WSW24.6 kmh WSW 20.5 mph33.0 kmh 29.95 in1014.2 mb 0.00 in0.0 mm 0.00 in0.0 mm 0.00 in0.0 mm
01:15 PM 67.4°F19.7°C 55.6°F13.1°C 66% 16.5 mph W26.6 kmh W 20.5 mph33.0 kmh 29.95 in1014.2 mb 0.00 in0.0 mm 0.00 in0.0 mm 0.00 in0.0 mm
01:20 PM 67.2°F19.6°C 55.4°F13.0°C 66% 15.8 mph W25.4 kmh W 19.3 mph31.1 kmh 29.95 in1014.2 mb 0.00 in0.0 mm 0.00 in0.0 mm 0.00 in0.0 mm
01:25 PM 67.2°F19.6°C 55.9°F13.3°C 67% 13.0 mph WNW20.9 kmh WNW 19.0 mph30.6 kmh 29.95 in1014.2 mb 0.00 in0.0 mm 0.00 in0.0 mm 0.00 in0.0 mm
01:30 PM 67.4°F19.7°C 56.0°F13.3°C 67% 13.3 mph WNW21.4 kmh WNW 23.2 mph37.3 kmh 29.98 in1015.2 mb 0.00 in0.0 mm 0.00 in0.0 mm 0.00 in0.0 mm
01:35 PM 67.7°F19.8°C 56.4°F13.6°C 67% 14.5 mph WNW23.3 kmh WNW 23.2 mph37.3 kmh 29.98 in1015.2 mb 0.00 in0.0 mm 0.00 in0.0 mm 0.00 in0.0 mm
01:40 PM 67.4°F19.7°C 56.0°F13.3°C 67% 13.9 mph WNW22.4 kmh WNW 20.5 mph33.0 kmh 29.98 in1015.2 mb 0.00 in0.0 mm 0.00 in0.0 mm 0.00 in0.0 mm
01:45 PM 66.8°F19.3°C 55.5°F13.1°C 67% 14.2 mph WNW22.9 kmh WNW 20.5 mph33.0 kmh 29.98 in1015.2 mb 0.00 in0.0 mm 0.00 in0.0 mm 0.00 in0.0 mm
01:50 PM 66.5°F19.2°C 55.6°F13.1°C 68% 15.0 mph W24.1 kmh W 22.6 mph36.4 kmh 29.98 in1015.2 mb 0.00 in0.0 mm 0.00 in0.0 mm 0.00 in0.0 mm
01:55 PM 66.1°F18.9°C 55.6°F13.1°C 69% 14.1 mph W22.7 kmh W 22.6 mph36.4 kmh 29.98 in1015.2 mb 0.00 in0.0 mm 0.00 in0.0 mm 0.00 in0.0 mm
02:00 PM 66.1°F18.9°C 55.6°F13.1°C 69% 12.6 mph W20.3 kmh W 17.3 mph27.8 kmh 29.98 in1015.2 mb 0.00 in0.0 mm 0.00 in0.0 mm 0.00 in0.0 mm
02:05 PM 66.3°F19.1°C 55.8°F13.2°C 69% 13.3 mph W21.4 kmh W 15.8 mph25.4 kmh 29.98 in1015.2 mb 0.00 in0.0 mm 0.00 in0.0 mm 0.00 in0.0 mm
02:10 PM 66.3°F19.1°C 55.8°F13.2°C 69% 12.8 mph W20.6 kmh W 15.8 mph25.4 kmh 29.98 in1015.2 mb 0.00 in0.0 mm 0.00 in0.0 mm 0.00 in0.0 mm
02:15 PM 66.5°F19.2°C 56.0°F13.3°C 69% 11.7 mph W18.8 kmh W 15.8 mph25.4 kmh 29.98 in1015.2 mb 0.00 in0.0 mm 0.00 in0.0 mm 0.00 in0.0 mm
02:20 PM 66.5°F19.2°C 56.0°F13.3°C 69% 10.1 mph W16.3 kmh W 14.3 mph23.0 kmh 29.98 in1015.2 mb 0.00 in0.0 mm 0.00 in0.0 mm 0.00 in0.0 mm
02:25 PM 66.1°F18.9°C 56.0°F13.3°C 70% 10.6 mph W17.1 kmh W 14.3 mph23.0 kmh 29.98 in1015.2 mb 0.00 in0.0 mm 0.00 in0.0 mm 0.00 in0.0 mm
02:30 PM 65.8°F18.8°C 55.7°F13.2°C 70% 11.4 mph W18.3 kmh W 17.6 mph28.3 kmh 29.98 in1015.2 mb 0.00 in0.0 mm 0.00 in0.0 mm 0.00 in0.0 mm
02:35 PM 65.6°F18.7°C 55.5°F13.1°C 70% 10.8 mph W17.4 kmh W 17.6 mph28.3 kmh 29.98 in1015.2 mb 0.00 in0.0 mm 0.00 in0.0 mm 0.00 in0.0 mm
02:40 PM 65.4°F18.6°C 55.3°F12.9°C 70% 11.4 mph W18.3 kmh W 15.8 mph25.4 kmh 29.98 in1015.2 mb 0.00 in0.0 mm 0.00 in0.0 mm 0.00 in0.0 mm
02:45 PM 65.4°F18.6°C 55.3°F12.9°C 70% 12.9 mph W20.8 kmh W 22.9 mph36.9 kmh 29.98 in1015.2 mb 0.00 in0.0 mm 0.00 in0.0 mm 0.00 in0.0 mm
02:50 PM 65.8°F18.8°C 56.1°F13.4°C 71% 12.1 mph W19.5 kmh W 22.9 mph36.9 kmh 29.98 in1015.2 mb 0.00 in0.0 mm 0.00 in0.0 mm 0.00 in0.0 mm
02:55 PM 65.9°F18.8°C 56.3°F13.5°C 71% 11.4 mph W18.3 kmh W 17.9 mph28.8 kmh 29.98 in1015.2 mb 0.00 in0.0 mm 0.00 in0.0 mm 0.00 in0.0 mm
03:00 PM 66.1°F18.9°C 56.0°F13.3°C 70% 12.7 mph WSW20.4 kmh WSW 17.9 mph28.8 kmh 29.98 in1015.2 mb 0.00 in0.0 mm 0.00 in0.0 mm 0.00 in0.0 mm
03:05 PM 65.9°F18.8°C 56.3°F13.5°C 71% 13.0 mph WSW20.9 kmh WSW 19.3 mph31.1 kmh 29.98 in1015.2 mb 0.00 in0.0 mm 0.00 in0.0 mm 0.00 in0.0 mm
03:10 PM 65.6°F18.7°C 55.9°F13.3°C 71% 14.9 mph WSW24.0 kmh WSW 21.1 mph34.0 kmh 29.98 in1015.2 mb 0.00 in0.0 mm 0.00 in0.0 mm 0.00 in0.0 mm
03:15 PM 65.6°F18.7°C 55.9°F13.3°C 71% 15.0 mph WSW24.1 kmh WSW 21.1 mph34.0 kmh 29.98 in1015.2 mb 0.00 in0.0 mm 0.00 in0.0 mm 0.00 in0.0 mm
03:20 PM 65.8°F18.8°C 56.1°F13.4°C 71% 16.7 mph WSW26.9 kmh WSW 21.4 mph34.4 kmh 29.98 in1015.2 mb 0.00 in0.0 mm 0.00 in0.0 mm 0.00 in0.0 mm
03:25 PM 65.9°F18.8°C 55.9°F13.3°C 70% 16.2 mph WSW26.1 kmh WSW 21.4 mph34.4 kmh 29.98 in1015.2 mb 0.00 in0.0 mm 0.00 in0.0 mm 0.00 in0.0 mm
03:30 PM 65.8°F18.8°C 55.7°F13.2°C 70% 14.3 mph W23.0 kmh W 21.1 mph34.0 kmh 29.98 in1015.2 mb 0.00 in0.0 mm 0.00 in0.0 mm 0.00 in0.0 mm
03:35 PM 65.2°F18.4°C 55.2°F12.9°C 70% 15.4 mph WSW24.8 kmh WSW 21.1 mph34.0 kmh 29.98 in1015.2 mb 0.00 in0.0 mm 0.00 in0.0 mm 0.00 in0.0 mm
03:40 PM 65.0°F18.3°C 55.4°F13.0°C 71% 15.3 mph W24.6 kmh W 20.8 mph33.5 kmh 29.98 in1015.2 mb 0.00 in0.0 mm 0.00 in0.0 mm 0.00 in0.0 mm
03:45 PM 65.0°F18.3°C 55.4°F13.0°C 71% 15.2 mph W24.5 kmh W 20.8 mph33.5 kmh 29.98 in1015.2 mb 0.00 in0.0 mm 0.00 in0.0 mm 0.00 in0.0 mm
03:50 PM 65.2°F18.4°C 55.2°F12.9°C 70% 14.2 mph W22.9 kmh W 20.2 mph32.5 kmh 29.98 in1015.2 mb 0.00 in0.0 mm 0.00 in0.0 mm 0.00 in0.0 mm
03:55 PM 64.8°F18.2°C 55.2°F12.9°C 71% 12.7 mph WSW20.4 kmh WSW 19.3 mph31.1 kmh 29.98 in1015.2 mb 0.00 in0.0 mm 0.00 in0.0 mm 0.00 in0.0 mm
04:00 PM 64.7°F18.2°C 55.0°F12.8°C 71% 14.3 mph WSW23.0 kmh WSW 25.9 mph41.7 kmh 29.98 in1015.2 mb 0.00 in0.0 mm 0.00 in0.0 mm 0.00 in0.0 mm
04:05 PM 64.5°F18.1°C 55.3°F12.9°C 72% 17.3 mph WSW27.8 kmh WSW 25.9 mph41.7 kmh 29.98 in1015.2 mb 0.00 in0.0 mm 0.00 in0.0 mm 0.00 in0.0 mm
04:10 PM 64.1°F17.8°C 54.9°F12.7°C 72% 16.7 mph WSW26.9 kmh WSW 20.2 mph32.5 kmh 29.98 in1015.2 mb 0.00 in0.0 mm 0.00 in0.0 mm 0.00 in0.0 mm
04:15 PM 64.0°F17.8°C 54.7°F12.6°C 72% 15.4 mph W24.8 kmh W 20.2 mph32.5 kmh 29.98 in1015.2 mb 0.00 in0.0 mm 0.00 in0.0 mm 0.00 in0.0 mm
04:20 PM 64.0°F17.8°C 54.7°F12.6°C 72% 14.0 mph W22.5 kmh W 17.3 mph27.8 kmh 29.98 in1015.2 mb 0.00 in0.0 mm 0.00 in0.0 mm 0.00 in0.0 mm
04:25 PM 64.0°F17.8°C 54.7°F12.6°C 72% 13.2 mph W21.2 kmh W 22.6 mph36.4 kmh 29.98 in1015.2 mb 0.00 in0.0 mm 0.00 in0.0 mm 0.00 in0.0 mm
04:30 PM 64.3°F17.9°C 55.1°F12.8°C 72% 13.9 mph W22.4 kmh W 22.6 mph36.4 kmh 29.98 in1015.2 mb 0.00 in0.0 mm 0.00 in0.0 mm 0.00 in0.0 mm
04:35 PM 64.8°F18.2°C 55.6°F13.1°C 72% 15.6 mph W25.1 kmh W 19.0 mph30.6 kmh 29.98 in1015.2 mb 0.00 in0.0 mm 0.00 in0.0 mm 0.00 in0.0 mm
04:40 PM 65.4°F18.6°C 55.7°F13.2°C 71% 14.5 mph W23.3 kmh W 20.5 mph33.0 kmh 29.98 in1015.2 mb 0.00 in0.0 mm 0.00 in0.0 mm 0.00 in0.0 mm
04:45 PM 65.6°F18.7°C 55.9°F13.3°C 71% 14.2 mph WSW22.9 kmh WSW 22.6 mph36.4 kmh 29.98 in1015.2 mb 0.00 in0.0 mm 0.00 in0.0 mm 0.00 in0.0 mm
04:50 PM 65.6°F18.7°C 55.5°F13.1°C 70% 14.3 mph W23.0 kmh W 22.6 mph36.4 kmh 29.98 in1015.2 mb 0.00 in0.0 mm 0.00 in0.0 mm 0.00 in0.0 mm
04:55 PM 65.9°F18.8°C 55.9°F13.3°C 70% 12.0 mph W19.3 kmh W 18.7 mph30.1 kmh 29.98 in1015.2 mb 0.00 in0.0 mm 0.00 in0.0 mm 0.00 in0.0 mm
05:00 PM 65.2°F18.4°C 55.2°F12.9°C 70% 11.9 mph W19.2 kmh W 22.9 mph36.9 kmh 30.01 in1016.3 mb 0.00 in0.0 mm 0.00 in0.0 mm 0.00 in0.0 mm
05:05 PM 64.8°F18.2°C 55.2°F12.9°C 71% 13.5 mph W21.7 kmh W 22.9 mph36.9 kmh 30.01 in1016.3 mb 0.00 in0.0 mm 0.00 in0.0 mm 0.00 in0.0 mm
05:10 PM 64.8°F18.2°C 55.2°F12.9°C 71% 12.4 mph W20.0 kmh W 18.7 mph30.1 kmh 30.01 in1016.3 mb 0.00 in0.0 mm 0.00 in0.0 mm 0.00 in0.0 mm
05:15 PM 64.7°F18.2°C 55.0°F12.8°C 71% 10.1 mph WNW16.3 kmh WNW 18.7 mph30.1 kmh 30.01 in1016.3 mb 0.00 in0.0 mm 0.00 in0.0 mm 0.00 in0.0 mm
05:20 PM 64.7°F18.2°C 55.0°F12.8°C 71% 9.5 mph W15.3 kmh W 18.7 mph30.1 kmh 30.01 in1016.3 mb 0.00 in0.0 mm 0.00 in0.0 mm 0.00 in0.0 mm
05:25 PM 64.5°F18.1°C 54.9°F12.7°C 71% 12.7 mph W20.4 kmh W 23.5 mph37.8 kmh 30.01 in1016.3 mb 0.00 in0.0 mm 0.00 in0.0 mm 0.00 in0.0 mm
05:30 PM 64.0°F17.8°C 54.4°F12.4°C 71% 14.6 mph W23.5 kmh W 23.5 mph37.8 kmh 30.01 in1016.3 mb 0.00 in0.0 mm 0.00 in0.0 mm 0.00 in0.0 mm
05:35 PM 63.6°F17.6°C 54.0°F12.2°C 71% 11.3 mph WSW18.2 kmh WSW 23.2 mph37.3 kmh 30.01 in1016.3 mb 0.00 in0.0 mm 0.00 in0.0 mm 0.00 in0.0 mm
05:40 PM 63.2°F17.3°C 53.7°F12.1°C 71% 12.1 mph WSW19.5 kmh WSW 23.2 mph37.3 kmh 30.01 in1016.3 mb 0.00 in0.0 mm 0.00 in0.0 mm 0.00 in0.0 mm
05:45 PM 63.0°F17.2°C 53.9°F12.2°C 72% 11.8 mph W19.0 kmh W 20.2 mph32.5 kmh 30.01 in1016.3 mb 0.00 in0.0 mm 0.00 in0.0 mm 0.00 in0.0 mm
05:50 PM 62.9°F17.2°C 53.7°F12.1°C 72% 9.5 mph W15.3 kmh W 16.7 mph26.9 kmh 30.01 in1016.3 mb 0.00 in0.0 mm 0.00 in0.0 mm 0.00 in0.0 mm
05:55 PM 62.7°F17.1°C 53.5°F11.9°C 72% 10.5 mph W16.9 kmh W 16.4 mph26.4 kmh 30.01 in1016.3 mb 0.00 in0.0 mm 0.00 in0.0 mm 0.00 in0.0 mm
06:00 PM 62.5°F16.9°C 53.7°F12.1°C 73% 12.3 mph W19.8 kmh W 16.4 mph26.4 kmh 30.01 in1016.3 mb 0.00 in0.0 mm 0.00 in0.0 mm 0.00 in0.0 mm
06:05 PM 62.3°F16.8°C 53.6°F12.0°C 73% 13.1 mph W21.1 kmh W 17.6 mph28.3 kmh 30.01 in1016.3 mb 0.00 in0.0 mm 0.00 in0.0 mm 0.00 in0.0 mm
06:10 PM 62.2°F16.8°C 53.4°F11.9°C 73% 13.3 mph W21.4 kmh W 17.6 mph28.3 kmh 30.01 in1016.3 mb 0.00 in0.0 mm 0.00 in0.0 mm 0.00 in0.0 mm
06:15 PM 62.2°F16.8°C 53.4°F11.9°C 73% 12.7 mph WSW20.4 kmh WSW 20.2 mph32.5 kmh 30.01 in1016.3 mb 0.00 in0.0 mm 0.00 in0.0 mm 0.00 in0.0 mm
06:20 PM 62.3°F16.8°C 53.6°F12.0°C 73% 12.0 mph W19.3 kmh W 20.2 mph32.5 kmh 30.01 in1016.3 mb 0.00 in0.0 mm 0.00 in0.0 mm 0.00 in0.0 mm
06:25 PM 62.7°F17.1°C 53.9°F12.2°C 73% 12.0 mph W19.3 kmh W 20.2 mph32.5 kmh 30.01 in1016.3 mb 0.00 in0.0 mm 0.00 in0.0 mm 0.00 in0.0 mm
06:30 PM 62.9°F17.2°C 53.7°F12.1°C 72% 14.1 mph WNW22.7 kmh WNW 19.6 mph31.5 kmh 30.01 in1016.3 mb 0.00 in0.0 mm 0.00 in0.0 mm 0.00 in0.0 mm
06:35 PM 62.7°F17.1°C 53.1°F11.7°C 71% 13.7 mph WNW22.0 kmh WNW 19.6 mph31.5 kmh 30.01 in1016.3 mb 0.00 in0.0 mm 0.00 in0.0 mm 0.00 in0.0 mm
06:40 PM 62.5°F16.9°C 53.0°F11.7°C 71% 12.7 mph W20.4 kmh W 17.0 mph27.4 kmh 30.01 in1016.3 mb 0.00 in0.0 mm 0.00 in0.0 mm 0.00 in0.0 mm
06:45 PM 62.2°F16.8°C 52.2°F11.2°C 70% 13.4 mph W21.6 kmh W 18.7 mph30.1 kmh 30.01 in1016.3 mb 0.00 in0.0 mm 0.00 in0.0 mm 0.00 in0.0 mm
06:50 PM 62.0°F16.7°C 52.5°F11.4°C 71% 12.4 mph W20.0 kmh W 18.7 mph30.1 kmh 30.01 in1016.3 mb 0.00 in0.0 mm 0.00 in0.0 mm 0.00 in0.0 mm
06:55 PM 61.6°F16.4°C 52.1°F11.2°C 71% 11.3 mph WNW18.2 kmh WNW 17.0 mph27.4 kmh 30.01 in1016.3 mb 0.00 in0.0 mm 0.00 in0.0 mm 0.00 in0.0 mm
07:00 PM 61.3°F16.3°C 52.1°F11.2°C 72% 10.7 mph WNW17.2 kmh WNW 17.0 mph27.4 kmh 30.01 in1016.3 mb 0.00 in0.0 mm 0.00 in0.0 mm 0.00 in0.0 mm
07:05 PM 61.3°F16.3°C 52.1°F11.2°C 72% 11.1 mph WNW17.9 kmh WNW 17.6 mph28.3 kmh 30.01 in1016.3 mb 0.00 in0.0 mm 0.00 in0.0 mm 0.00 in0.0 mm
07:10 PM 61.1°F16.2°C 52.0°F11.1°C 72% 13.2 mph WNW21.2 kmh WNW 17.6 mph28.3 kmh 30.01 in1016.3 mb 0.00 in0.0 mm 0.00 in0.0 mm 0.00 in0.0 mm
07:15 PM 60.7°F15.9°C 51.2°F10.7°C 71% 13.5 mph WNW21.7 kmh WNW 17.6 mph28.3 kmh 30.01 in1016.3 mb 0.00 in0.0 mm 0.00 in0.0 mm 0.00 in0.0 mm
07:20 PM 60.5°F15.8°C 51.1°F10.6°C 71% 14.6 mph W23.5 kmh W 22.6 mph36.4 kmh 30.01 in1016.3 mb 0.00 in0.0 mm 0.00 in0.0 mm 0.00 in0.0 mm
07:25 PM 60.3°F15.7°C 50.9°F10.5°C 71% 14.7 mph W23.7 kmh W 22.6 mph36.4 kmh 30.01 in1016.3 mb 0.00 in0.0 mm 0.00 in0.0 mm 0.00 in0.0 mm
07:30 PM 60.2°F15.7°C 50.7°F10.4°C 71% 13.8 mph WNW22.2 kmh WNW 18.4 mph29.6 kmh 30.01 in1016.3 mb 0.00 in0.0 mm 0.00 in0.0 mm 0.00 in0.0 mm
07:35 PM 60.0°F15.6°C 50.9°F10.5°C 72% 13.0 mph WNW20.9 kmh WNW 17.3 mph27.8 kmh 30.01 in1016.3 mb 0.00 in0.0 mm 0.00 in0.0 mm 0.00 in0.0 mm
07:40 PM 59.8°F15.4°C 50.8°F10.4°C 72% 14.7 mph W23.7 kmh W 19.3 mph31.1 kmh 30.01 in1016.3 mb 0.00 in0.0 mm 0.00 in0.0 mm 0.00 in0.0 mm
07:45 PM 59.8°F15.4°C 50.8°F10.4°C 72% 13.6 mph W21.9 kmh W 19.3 mph31.1 kmh 30.01 in1016.3 mb 0.00 in0.0 mm 0.00 in0.0 mm 0.00 in0.0 mm
07:50 PM 59.8°F15.4°C 50.8°F10.4°C 72% 12.6 mph WNW20.3 kmh WNW 17.9 mph28.8 kmh 30.01 in1016.3 mb 0.00 in0.0 mm 0.00 in0.0 mm 0.00 in0.0 mm
07:55 PM 59.6°F15.3°C 50.6°F10.3°C 72% 12.1 mph W19.5 kmh W 17.9 mph28.8 kmh 30.01 in1016.3 mb 0.00 in0.0 mm 0.00 in0.0 mm 0.00 in0.0 mm
08:00 PM 59.6°F15.3°C 50.6°F10.3°C 72% 11.4 mph W18.3 kmh W 14.0 mph22.5 kmh 30.01 in1016.3 mb 0.00 in0.0 mm 0.00 in0.0 mm 0.00 in0.0 mm
08:05 PM 59.5°F15.3°C 50.4°F10.2°C 72% 11.6 mph W18.7 kmh W 14.0 mph22.5 kmh 30.01 in1016.3 mb 0.00 in0.0 mm 0.00 in0.0 mm 0.00 in0.0 mm
08:10 PM 59.6°F15.3°C 50.6°F10.3°C 72% 10.5 mph WNW16.9 kmh WNW 13.4 mph21.6 kmh 30.01 in1016.3 mb 0.00 in0.0 mm 0.00 in0.0 mm 0.00 in0.0 mm
08:15 PM 59.6°F15.3°C 50.6°F10.3°C 72% 10.0 mph WNW16.1 kmh WNW 16.4 mph26.4 kmh 30.01 in1016.3 mb 0.00 in0.0 mm 0.00 in0.0 mm 0.00 in0.0 mm
08:20 PM 59.5°F15.3°C 50.4°F10.2°C 72% 11.4 mph NW18.3 kmh NW 16.4 mph26.4 kmh 30.01 in1016.3 mb 0.00 in0.0 mm 0.00 in0.0 mm 0.00 in0.0 mm
08:25 PM 59.5°F15.3°C 50.4°F10.2°C 72% 10.8 mph WNW17.4 kmh WNW 16.1 mph25.9 kmh 30.01 in1016.3 mb 0.00 in0.0 mm 0.00 in0.0 mm 0.00 in0.0 mm
08:30 PM 59.5°F15.3°C 50.4°F10.2°C 72% 11.0 mph W17.7 kmh W 16.1 mph25.9 kmh 30.01 in1016.3 mb 0.00 in0.0 mm 0.00 in0.0 mm 0.00 in0.0 mm
08:35 PM 59.5°F15.3°C 50.4°F10.2°C 72% 10.9 mph WSW17.5 kmh WSW 16.1 mph25.9 kmh 30.01 in1016.3 mb 0.00 in0.0 mm 0.00 in0.0 mm 0.00 in0.0 mm
08:40 PM 59.5°F15.3°C 50.4°F10.2°C 72% 9.5 mph W15.3 kmh W 17.3 mph27.8 kmh 30.01 in1016.3 mb 0.00 in0.0 mm 0.00 in0.0 mm 0.00 in0.0 mm
08:45 PM 59.5°F15.3°C 50.4°F10.2°C 72% 8.7 mph W14.0 kmh W 17.3 mph27.8 kmh 30.01 in1016.3 mb 0.00 in0.0 mm 0.00 in0.0 mm 0.00 in0.0 mm
08:50 PM 59.5°F15.3°C 50.4°F10.2°C 72% 9.8 mph W15.8 kmh W 16.4 mph26.4 kmh 30.01 in1016.3 mb 0.00 in0.0 mm 0.00 in0.0 mm 0.00 in0.0 mm
08:55 PM 59.5°F15.3°C 50.4°F10.2°C 72% 10.4 mph W16.7 kmh W 16.4 mph26.4 kmh 30.01 in1016.3 mb 0.00 in0.0 mm 0.00 in0.0 mm 0.00 in0.0 mm
09:00 PM 59.6°F15.3°C 50.6°F10.3°C 72% 11.3 mph W18.2 kmh W 14.9 mph24.0 kmh 30.01 in1016.3 mb 0.00 in0.0 mm 0.00 in0.0 mm 0.00 in0.0 mm
09:05 PM 59.6°F15.3°C 50.6°F10.3°C 72% 11.1 mph W17.9 kmh W 14.9 mph24.0 kmh 30.01 in1016.3 mb 0.00 in0.0 mm 0.00 in0.0 mm 0.00 in0.0 mm
09:10 PM 59.6°F15.3°C 50.6°F10.3°C 72% 9.5 mph W15.3 kmh W 13.1 mph21.1 kmh 30.01 in1016.3 mb 0.00 in0.0 mm 0.00 in0.0 mm 0.00 in0.0 mm
09:15 PM 59.6°F15.3°C 50.6°F10.3°C 72% 8.5 mph W13.7 kmh W 12.8 mph20.6 kmh 30.01 in1016.3 mb 0.00 in0.0 mm 0.00 in0.0 mm 0.00 in0.0 mm
09:20 PM 59.8°F15.4°C 50.8°F10.4°C 72% 8.5 mph W13.7 kmh W 14.6 mph23.5 kmh 30.01 in1016.3 mb 0.00 in0.0 mm 0.00 in0.0 mm 0.00 in0.0 mm
09:25 PM 59.8°F15.4°C 50.8°F10.4°C 72% 8.1 mph W13.0 kmh W 14.6 mph23.5 kmh 30.01 in1016.3 mb 0.00 in0.0 mm 0.00 in0.0 mm 0.00 in0.0 mm
09:30 PM 59.8°F15.4°C 50.8°F10.4°C 72% 6.9 mph W11.1 kmh W 12.8 mph20.6 kmh 30.01 in1016.3 mb 0.00 in0.0 mm 0.00 in0.0 mm 0.00 in0.0 mm
09:35 PM 59.8°F15.4°C 51.1°F10.6°C 73% 7.8 mph W12.6 kmh W 13.4 mph21.6 kmh 30.01 in1016.3 mb 0.00 in0.0 mm 0.00 in0.0 mm 0.00 in0.0 mm
09:40 PM 59.8°F15.4°C 51.1°F10.6°C 73% 9.4 mph W15.1 kmh W 13.4 mph21.6 kmh 30.01 in1016.3 mb 0.00 in0.0 mm 0.00 in0.0 mm 0.00 in0.0 mm
09:45 PM 59.8°F15.4°C 51.1°F10.6°C 73% 8.3 mph W13.4 kmh W 13.4 mph21.6 kmh 30.01 in1016.3 mb 0.00 in0.0 mm 0.00 in0.0 mm 0.00 in0.0 mm
09:50 PM 60.0°F15.6°C 51.7°F10.9°C 74% 7.1 mph W11.4 kmh W 14.9 mph24.0 kmh 30.01 in1016.3 mb 0.00 in0.0 mm 0.00 in0.0 mm 0.00 in0.0 mm
09:55 PM 59.8°F15.4°C 51.5°F10.8°C 74% 7.8 mph W12.6 kmh W 14.9 mph24.0 kmh 30.01 in1016.3 mb 0.00 in0.0 mm 0.00 in0.0 mm 0.00 in0.0 mm
10:00 PM 59.8°F15.4°C 51.5°F10.8°C 74% 8.5 mph W13.7 kmh W 11.9 mph19.2 kmh 30.01 in1016.3 mb 0.00 in0.0 mm 0.00 in0.0 mm 0.00 in0.0 mm
10:05 PM 59.8°F15.4°C 51.5°F10.8°C 74% 9.5 mph W15.3 kmh W 11.9 mph19.2 kmh 30.01 in1016.3 mb 0.00 in0.0 mm 0.00 in0.0 mm 0.00 in0.0 mm
10:10 PM 59.6°F15.3°C 51.0°F10.6°C 73% 9.5 mph W15.3 kmh W 11.6 mph18.7 kmh 30.01 in1016.3 mb 0.00 in0.0 mm 0.00 in0.0 mm 0.00 in0.0 mm
10:15 PM 59.5°F15.3°C 50.8°F10.4°C 73% 9.2 mph W14.8 kmh W 14.6 mph23.5 kmh 30.01 in1016.3 mb 0.00 in0.0 mm 0.00 in0.0 mm 0.00 in0.0 mm
10:20 PM 59.5°F15.3°C 50.8°F10.4°C 73% 9.3 mph W15.0 kmh W 14.6 mph23.5 kmh 30.01 in1016.3 mb 0.00 in0.0 mm 0.00 in0.0 mm 0.00 in0.0 mm
10:25 PM 59.3°F15.2°C 50.2°F10.1°C 72% 10.1 mph W16.3 kmh W 14.0 mph22.5 kmh 30.01 in1016.3 mb 0.00 in0.0 mm 0.00 in0.0 mm 0.00 in0.0 mm
10:30 PM 59.3°F15.2°C 50.2°F10.1°C 72% 12.7 mph W20.4 kmh W 14.0 mph22.5 kmh 30.04 in1017.3 mb 0.00 in0.0 mm 0.00 in0.0 mm 0.00 in0.0 mm
10:35 PM 59.3°F15.2°C 50.2°F10.1°C 72% 12.6 mph W20.3 kmh W 19.0 mph30.6 kmh 30.04 in1017.3 mb 0.00 in0.0 mm 0.00 in0.0 mm 0.00 in0.0 mm
10:40 PM 59.1°F15.1°C 50.1°F10.1°C 72% 11.9 mph WSW19.2 kmh WSW 19.0 mph30.6 kmh 30.04 in1017.3 mb 0.00 in0.0 mm 0.00 in0.0 mm 0.00 in0.0 mm
10:45 PM 59.1°F15.1°C 50.1°F10.1°C 72% 11.2 mph W18.0 kmh W 16.7 mph26.9 kmh 30.04 in1017.3 mb 0.00 in0.0 mm 0.00 in0.0 mm 0.00 in0.0 mm
10:50 PM 58.9°F14.9°C 49.9°F9.9°C 72% 11.6 mph W18.7 kmh W 16.7 mph26.9 kmh 30.04 in1017.3 mb 0.00 in0.0 mm 0.00 in0.0 mm 0.00 in0.0 mm
10:55 PM 58.9°F14.9°C 49.5°F9.7°C 71% 12.3 mph W19.8 kmh W 16.7 mph26.9 kmh 30.04 in1017.3 mb 0.00 in0.0 mm 0.00 in0.0 mm 0.00 in0.0 mm
11:00 PM 58.7°F14.8°C 49.3°F9.6°C 71% 11.9 mph W19.2 kmh W 17.0 mph27.4 kmh 30.04 in1017.3 mb 0.00 in0.0 mm 0.00 in0.0 mm 0.00 in0.0 mm
11:05 PM 58.7°F14.8°C 49.3°F9.6°C 71% 9.6 mph W15.4 kmh W 17.0 mph27.4 kmh 30.04 in1017.3 mb 0.00 in0.0 mm 0.00 in0.0 mm 0.00 in0.0 mm
11:10 PM 58.5°F14.7°C 49.2°F9.6°C 71% 8.2 mph WNW13.2 kmh WNW 14.3 mph23.0 kmh 30.04 in1017.3 mb 0.00 in0.0 mm 0.00 in0.0 mm 0.00 in0.0 mm
11:15 PM 58.5°F14.7°C 48.8°F9.3°C 70% 9.4 mph W15.1 kmh W 14.6 mph23.5 kmh 30.04 in1017.3 mb 0.00 in0.0 mm 0.00 in0.0 mm 0.00 in0.0 mm
11:20 PM 58.5°F14.7°C 49.2°F9.6°C 71% 11.4 mph WSW18.3 kmh WSW 17.0 mph27.4 kmh 30.04 in1017.3 mb 0.00 in0.0 mm 0.00 in0.0 mm 0.00 in0.0 mm
11:25 PM 58.5°F14.7°C 49.2°F9.6°C 71% 11.6 mph W18.7 kmh W 17.0 mph27.4 kmh 30.04 in1017.3 mb 0.00 in0.0 mm 0.00 in0.0 mm 0.00 in0.0 mm
11:30 PM 58.4°F14.7°C 48.6°F9.2°C 70% 10.4 mph WNW16.7 kmh WNW 16.4 mph26.4 kmh 30.04 in1017.3 mb 0.00 in0.0 mm 0.00 in0.0 mm 0.00 in0.0 mm
11:35 PM 58.5°F14.7°C 48.8°F9.3°C 70% 9.3 mph W15.0 kmh W 12.2 mph19.6 kmh 30.04 in1017.3 mb 0.00 in0.0 mm 0.00 in0.0 mm 0.00 in0.0 mm
11:40 PM 58.5°F14.7°C 48.8°F9.3°C 70% 8.9 mph WSW14.3 kmh WSW 12.2 mph19.6 kmh 30.04 in1017.3 mb 0.00 in0.0 mm 0.00 in0.0 mm 0.00 in0.0 mm
11:45 PM 58.5°F14.7°C 48.8°F9.3°C 70% 10.4 mph W16.7 kmh W 16.1 mph25.9 kmh 30.04 in1017.3 mb 0.00 in0.0 mm 0.00 in0.0 mm 0.00 in0.0 mm
11:50 PM 58.4°F14.7°C 48.6°F9.2°C 70% 12.3 mph W19.8 kmh W 17.9 mph28.8 kmh 30.04 in1017.3 mb 0.00 in0.0 mm 0.00 in0.0 mm 0.00 in0.0 mm
11:55 PM 58.4°F14.7°C 48.6°F9.2°C 70% 14.0 mph W22.5 kmh W 19.0 mph30.6 kmh 30.04 in1017.3 mb 0.00 in0.0 mm 0.00 in0.0 mm 0.00 in0.0 mm